Spearfish, SD

2:37 AM MDT on August 29, 2016 (GMT -0600)
Black Hills-Ice

Weather History for KSPF - November, 2012

Change the Weather History Date:

Wednesday, November 7, 2012

  Actual Average (KEFC) Record (KEFC)
Temperature  
Mean Temperature 53 °F -  
Max Temperature 71 °F 51 °F 75 °F (1978)
Min Temperature 35 °F 22 °F -2 °F (1991)
Degree Days  
Heating Degree Days 12    
Growing Degree Days 3 (Base 50)    
Moisture  
Dew Point 28 °F    
Average Humidity 42    
Maximum Humidity 75    
Minimum Humidity 19    
Precipitation  
Precipitation 0.00 in - - ()
Sea Level Pressure  
Sea Level Pressure 29.86 in    
Wind  
Wind Speed 4 mph (WSW)    
Max Wind Speed 18 mph    
Max Gust Speed 26 mph    
Visibility 10 miles    
Events      
Averages and records for this station are not official NWS values.
T = Trace of Precipitation, MM = Missing Value Source: NWS Daily Summary

Daily Weather History Graph

Daily Weather History Graph

Search for Another Location

Airport or City:

Trip Planner

Search our weather history database for the weather conditions in past years. The results will help you decide how hot, cold, wet, or windy it might be!

Date:

Astronomy

Nov. 07, 2012 Rise Set
Actual Time 7:41 AM CST 5:35 PM CST
Civil Twilight 7:10 AM CST 6:06 PM CST
Nautical Twilight 6:35 AM CST 6:41 PM CST
Astronomical Twilight 6:01 AM CST 7:15 PM CST
Moon 12:21 AM CST (11/7) 2:00 PM CST (11/7)
Length of Visible Light 10h 56m
Length of Day
9h 54m
Last Quarter, 43% of the Moon is Illuminated
Nov 7
Last Quarter
Nov 13
New
Nov 20
First Quarter
Nov 28
Full
Dec 6
Last Quarter

Hourly Weather History & Observations

Time (CST) Temp. Windchill Dew Point Humidity Pressure Visibility Wind Dir Wind Speed Gust Speed Precip Events Conditions
12:15 AM 35.6 °F 32.8 °F 26.6 °F 70% 30.07 in 10.0 mi South 3.5 mph - N/A   Clear
12:35 AM 35.6 °F 30.7 °F 28.4 °F 75% 30.06 in 10.0 mi South 5.8 mph - N/A   Clear
12:55 AM 35.6 °F 32.8 °F 28.4 °F 75% 30.06 in 10.0 mi SSE 3.5 mph - N/A   Clear
1:15 AM 37.4 °F 32.8 °F 28.4 °F 70% 30.04 in 10.0 mi SE 5.8 mph - N/A   Clear
1:35 AM 37.4 °F - 28.4 °F 70% 30.04 in 10.0 mi Calm Calm - N/A   Clear
1:55 AM 37.4 °F - 28.4 °F 70% 30.03 in 10.0 mi Calm Calm - N/A   Clear
2:15 AM 41.0 °F - 26.6 °F 57% 30.02 in 10.0 mi Calm Calm - N/A   Clear
2:35 AM 41.0 °F - 28.4 °F 61% 30.02 in 10.0 mi Calm Calm - N/A   Clear
2:55 AM 41.0 °F - 26.6 °F 57% 30.01 in 10.0 mi Calm Calm - N/A   Clear
3:15 AM 39.2 °F 37.0 °F 28.4 °F 65% 30.00 in 10.0 mi SE 3.5 mph - N/A   Clear
3:55 AM 41.0 °F - 28.4 °F 61% 29.98 in 10.0 mi Calm Calm - N/A   Clear
4:15 AM 44.6 °F - 28.4 °F 53% 29.97 in 10.0 mi Calm Calm - N/A   Clear
4:35 AM 44.6 °F - 26.6 °F 49% 29.96 in 10.0 mi Calm Calm - N/A   Clear
4:55 AM 44.6 °F - 26.6 °F 49% 29.95 in 10.0 mi Calm Calm - N/A   Clear
5:15 AM 44.6 °F - 26.6 °F 49% 29.94 in 10.0 mi Calm Calm - N/A   Clear
5:35 AM 44.6 °F - 28.4 °F 53% 29.94 in 10.0 mi Calm Calm - N/A   Clear
5:55 AM 41.0 °F 39.0 °F 26.6 °F 57% 29.93 in 10.0 mi WSW 3.5 mph - N/A   Clear
6:15 AM 48.2 °F - 26.6 °F 43% 29.93 in 10.0 mi Calm Calm - N/A   Clear
6:35 AM 44.6 °F - 26.6 °F 49% 29.92 in 10.0 mi Calm Calm - N/A   Clear
6:55 AM 46.4 °F 45.2 °F 28.4 °F 50% 29.92 in 10.0 mi SE 3.5 mph - N/A   Clear
7:15 AM 48.2 °F - 28.4 °F 46% 29.91 in 10.0 mi SE 3.5 mph - N/A   Clear
7:35 AM 46.4 °F - 28.4 °F 50% 29.91 in 10.0 mi Calm Calm - N/A   Clear
7:55 AM 48.2 °F - 28.4 °F 46% 29.90 in 10.0 mi Calm Calm - N/A   Clear
8:15 AM 50.0 °F - 28.4 °F 43% 29.90 in 10.0 mi SW 4.6 mph - N/A   Clear
8:35 AM 50.0 °F - 30.2 °F 47% 29.90 in 10.0 mi Calm Calm - N/A   Clear
8:55 AM 50.0 °F - 32.0 °F 50% 29.90 in 10.0 mi West 4.6 mph - N/A   Clear
9:15 AM 55.4 °F - 32.0 °F 41% 29.89 in 10.0 mi SE 3.5 mph - N/A   Clear
9:35 AM 57.2 °F - 32.0 °F 38% 29.89 in 10.0 mi Calm Calm - N/A   Clear
9:55 AM 57.2 °F - 32.0 °F 38% 29.88 in 10.0 mi Calm Calm - N/A   Clear
10:15 AM 62.6 °F - 32.0 °F 32% 29.87 in 10.0 mi West 5.8 mph - N/A   Clear
10:35 AM 64.4 °F - 30.2 °F 28% 29.86 in 9.0 mi West 11.5 mph 16.1 mph N/A   Clear
10:55 AM 66.2 °F - 28.4 °F 24% 29.86 in 10.0 mi WSW 11.5 mph - N/A   Clear
11:15 AM 66.2 °F - 30.2 °F 26% 29.85 in 10.0 mi West 3.5 mph - N/A   Clear
11:35 AM 66.2 °F - 30.2 °F 26% 29.84 in 10.0 mi NW 4.6 mph - N/A   Clear
11:55 AM 66.2 °F - 30.2 °F 26% 29.84 in 10.0 mi NNW 4.6 mph - N/A   Clear
12:15 PM 68.0 °F - 28.4 °F 23% 29.83 in 10.0 mi North 4.6 mph - N/A   Clear
12:35 PM 68.0 °F - 28.4 °F 23% 29.81 in 10.0 mi NNW 5.8 mph - N/A   Clear
12:55 PM 69.8 °F - 28.4 °F 21% 29.81 in 10.0 mi WNW 4.6 mph - N/A   Clear
1:15 PM 71.6 °F - 26.6 °F 19% 29.80 in 10.0 mi NNW 10.4 mph - N/A   Clear
1:55 PM 71.6 °F - 26.6 °F 19% 29.80 in 10.0 mi WNW 13.8 mph - N/A   Clear
2:15 PM 71.6 °F - 26.6 °F 19% 29.79 in 10.0 mi NW 9.2 mph - N/A   Clear
2:35 PM 71.6 °F - 26.6 °F 19% 29.79 in 10.0 mi NW 10.4 mph - N/A   Clear
2:55 PM 69.8 °F - 26.6 °F 20% 29.79 in 10.0 mi NW 9.2 mph - N/A   Clear
3:15 PM 69.8 °F - 26.6 °F 20% 29.78 in 10.0 mi WNW 6.9 mph - N/A   Clear
3:35 PM 69.8 °F - 26.6 °F 20% 29.78 in 10.0 mi WNW 8.1 mph - N/A   Clear
3:55 PM 69.8 °F - 26.6 °F 20% 29.78 in 10.0 mi NW 6.9 mph - N/A   Clear
4:15 PM 68.0 °F - 26.6 °F 21% 29.77 in 10.0 mi NW 8.1 mph - N/A   Clear
4:55 PM 64.4 °F - 24.8 °F 22% 29.77 in 10.0 mi WNW 4.6 mph - N/A   Clear
5:15 PM 55.4 °F - 30.2 °F 38% 29.77 in 10.0 mi SW 5.8 mph - N/A   Clear
5:35 PM 53.6 °F - 30.2 °F 41% 29.77 in 10.0 mi SSW 6.9 mph - N/A   Clear
5:55 PM 51.8 °F - 28.4 °F 41% 29.77 in 10.0 mi SSW 6.9 mph - N/A   Clear
6:15 PM 50.0 °F - 28.4 °F 43% 29.77 in 10.0 mi Calm Calm - N/A   Clear
6:35 PM 50.0 °F - 28.4 °F 43% 29.77 in 10.0 mi South 6.9 mph - N/A   Clear
6:55 PM 51.8 °F - 26.6 °F 38% 29.77 in 10.0 mi SSW 8.1 mph - N/A   Clear
7:15 PM 48.2 °F - 26.6 °F 43% 29.78 in 10.0 mi Calm Calm - N/A   Clear
7:35 PM 46.4 °F 42.4 °F 26.6 °F 46% 29.77 in 10.0 mi South 8.1 mph - N/A   Clear
7:55 PM 46.4 °F 44.3 °F 26.6 °F 46% 29.77 in 10.0 mi NNE 4.6 mph - N/A   Clear
8:15 PM 50.0 °F - 24.8 °F 37% 29.77 in 10.0 mi WSW 5.8 mph - N/A   Clear
8:35 PM 46.4 °F 41.9 °F 26.6 °F 46% 29.76 in 10.0 mi SSW 9.2 mph - N/A   Clear
8:55 PM 46.4 °F 42.9 °F 26.6 °F 46% 29.76 in 10.0 mi SSW 6.9 mph - N/A   Clear
9:15 PM 46.4 °F 45.2 °F 26.6 °F 46% 29.76 in 10.0 mi South 3.5 mph - N/A   Clear
9:35 PM 46.4 °F 42.4 °F 26.6 °F 46% 29.76 in 10.0 mi South 8.1 mph - N/A   Clear
9:55 PM 44.6 °F - 26.6 °F 49% 29.77 in 10.0 mi Calm Calm - N/A   Clear
10:15 PM 46.4 °F 41.9 °F 26.6 °F 46% 29.77 in 10.0 mi WSW 9.2 mph - N/A   Clear
10:35 PM 48.2 °F - 24.8 °F 40% 29.78 in 10.0 mi West 6.9 mph - N/A   Clear
10:55 PM 48.2 °F - 24.8 °F 40% 29.78 in 10.0 mi West 6.9 mph - N/A   Clear
11:15 PM 44.6 °F - 26.6 °F 49% 29.78 in 10.0 mi Calm Calm - N/A   Clear
11:35 PM 48.2 °F - 24.8 °F 40% 29.82 in 10.0 mi NNW 18.4 mph 26.5 mph N/A   Clear
11:55 PM 46.4 °F 40.7 °F 26.6 °F 46% 29.87 in 10.0 mi WNW 12.7 mph 18.4 mph N/A   Clear